Time;durP1;ratioP1;P1;durP2;ratioP2;P2;SDS_P1;SDS_P2;PMS_P1;PMS_P2;Temp;Humidity;BMP_temperature;BMP_pressure;BME280_temperature;BME280_humidity;BME280_pressure;Samples;Min_cycle;Max_cycle;Signal;HPM_P1;HPM_P2
2021/10/23 00:00:10;;;;;;;3.03;1.63;;;;;;;;;;5025471;28;20446;-91
2021/10/23 00:02:37;;;;;;;4.90;1.90;;;;;;;;;;5022963;28;20836;-90
2021/10/23 00:05:05;;;;;;;2.70;1.63;;;;;;;;;;5024389;28;20521;-87
2021/10/23 00:07:35;;;;;;;3.23;1.33;;;;;;;;;;5023840;28;20443;-87
2021/10/23 00:10:04;;;;;;;6.60;1.50;;;;;;;;;;5020996;28;20585;-87
2021/10/23 00:12:38;;;;;;;3.70;1.07;;;;;;;;;;5024279;28;20803;-90
2021/10/23 00:15:07;;;;;;;2.47;1.43;;;6.90;99.90;;;;;;5023929;28;20479;-91
2021/10/23 00:17:34;;;;;;;5.97;1.17;;;;;;;;;;5027727;28;20455;-91
2021/10/23 00:20:06;;;;;;;3.07;1.43;;;6.90;99.90;;;;;;5021933;28;20456;-89
2021/10/23 00:22:34;;;;;;;4.47;1.83;;;;;;;;;;5018968;28;20469;-90
2021/10/23 00:25:14;;;;;;;3.40;1.50;;;7.00;99.90;;;;;;5019505;28;20982;-90
2021/10/23 00:27:54;;;;;;;2.17;1.40;;;;;;;;;;5020924;28;20586;-89
2021/10/23 00:30:25;;;;;;;2.50;1.57;;;;;;;;;;5025405;28;20476;-90
2021/10/23 00:33:01;;;;;;;6.90;1.93;;;;;;;;;;5017162;28;20452;-90
2021/10/23 00:35:29;;;;;;;2.30;1.17;;;;;;;;;;5022119;28;20451;-87
2021/10/23 00:37:57;;;;;;;4.50;2.10;;;;;;;;;;5023471;28;20442;-88
2021/10/23 00:40:25;;;;;;;2.20;1.77;;;;;;;;;;5020463;28;20474;-89
2021/10/23 00:42:56;;;;;;;3.03;1.77;;;;;;;;;;5026551;28;20443;-88
2021/10/23 00:45:24;;;;;;;2.97;1.03;;;;;;;;;;5025254;28;20484;-89
2021/10/23 00:47:52;;;;;;;6.70;2.00;;;;;;;;;;5024835;28;20439;-88
2021/10/23 00:50:24;;;;;;;3.00;1.37;;;;;;;;;;5023035;28;20539;-89
2021/10/23 00:52:51;;;;;;;3.50;1.93;;;;;;;;;;5026732;28;20440;-88
2021/10/23 00:55:21;;;;;;;4.70;1.63;;;7.10;99.90;;;;;;5021336;28;20444;-90
2021/10/23 00:57:48;;;;;;;5.00;1.50;;;;;;;;;;5013343;28;20840;-89
2021/10/23 01:00:17;;;;;;;2.17;1.30;;;7.10;99.90;;;;;;5013523;28;20444;-89
2021/10/23 01:02:51;;;;;;;2.23;1.10;;;;;;;;;;5012907;28;20487;-90
2021/10/23 01:05:19;;;;;;;2.67;1.53;;;;;;;;;;5013426;28;20565;-91
2021/10/23 01:07:47;;;;;;;7.13;2.53;;;;;;;;;;5017157;28;20921;-88
2021/10/23 01:10:14;;;;;;;6.80;2.17;;;;;;;;;;5016357;28;20452;-89
2021/10/23 01:12:42;;;;;;;2.57;1.40;;;7.20;99.90;;;;;;5017086;28;20909;-88
2021/10/23 01:15:20;;;;;;;7.57;1.73;;;7.10;99.90;;;;;;5016994;28;21031;-87
2021/10/23 01:17:52;;;;;;;4.10;1.57;;;7.10;99.90;;;;;;5017273;28;20455;-91
2021/10/23 01:20:21;;;;;;;1.90;1.00;;;7.10;99.90;;;;;;5017235;28;20452;-90
2021/10/23 01:22:49;;;;;;;7.80;2.00;;;;;;;;;;5022275;28;20611;-87
2021/10/23 01:25:16;;;;;;;6.30;1.70;;;;;;;;;;5021951;28;20476;-88
2021/10/23 01:27:44;;;;;;;4.20;1.47;;;;;;;;;;5017522;28;20443;-91
2021/10/23 01:30:12;;;;;;;4.07;1.90;;;7.00;99.90;;;;;;5016847;28;20463;-90
2021/10/23 01:32:40;;;;;;;7.27;1.97;;;7.00;99.90;;;;;;5016866;28;20448;-90
2021/10/23 01:35:08;;;;;;;3.20;1.53;;;7.00;99.90;;;;;;5016251;28;20441;-88
2021/10/23 01:37:38;;;;;;;3.23;1.90;;;7.00;99.90;;;;;;5016502;28;20547;-89
2021/10/23 01:40:08;;;;;;;4.27;1.70;;;7.00;99.90;;;;;;5015267;28;20498;-91
2021/10/23 01:42:35;;;;;;;5.10;1.77;;;;;;;;;;4994421;28;20437;-88
2021/10/23 01:45:02;;;;;;;6.03;1.80;;;;;;;;;;4994435;28;20504;-89
2021/10/23 01:47:29;;;;;;;3.40;1.80;;;;;;;;;;4990949;28;20453;-89
2021/10/23 01:49:56;;;;;;;2.97;1.73;;;;;;;;;;4994939;28;20475;-89
2021/10/23 01:52:24;;;;;;;4.90;1.90;;;;;;;;;;4994684;28;20541;-89
2021/10/23 01:54:52;;;;;;;5.27;1.87;;;;;;;;;;4993621;28;20445;-88
2021/10/23 01:57:20;;;;;;;5.20;1.70;;;;;;;;;;4997992;28;20456;-90
2021/10/23 01:59:47;;;;;;;4.93;1.87;;;;;;;;;;4994702;28;20452;-89
2021/10/23 02:02:14;;;;;;;6.67;2.27;;;;;;;;;;4994018;28;21148;-89
2021/10/23 02:04:41;;;;;;;5.07;1.40;;;;;;;;;;4994019;28;20457;-92
2021/10/23 02:07:08;;;;;;;5.53;2.20;;;;;;;;;;5003991;28;20963;-90
2021/10/23 02:09:35;;;;;;;3.80;1.77;;;;;;;;;;5014812;28;20896;-90
2021/10/23 02:12:04;;;;;;;3.70;1.87;;;6.80;99.90;;;;;;5015745;28;20794;-90
2021/10/23 02:14:32;;;;;;;3.23;2.23;;;;;;;;;;4997308;28;20452;-90
2021/10/23 02:16:59;;;;;;;6.87;1.73;;;;;;;;;;5015778;28;20772;-89
2021/10/23 02:19:26;;;;;;;5.40;1.77;;;;;;;;;;5014752;28;20520;-89
2021/10/23 02:21:53;;;;;;;3.90;1.83;;;;;;;;;;5015241;28;20468;-88
2021/10/23 02:24:20;;;;;;;3.90;1.70;;;;;;;;;;5013684;28;20460;-88
2021/10/23 02:26:48;;;;;;;3.27;1.60;;;;;;;;;;5015633;28;20491;-90
2021/10/23 02:29:16;;;;;;;3.80;1.80;;;6.40;99.90;;;;;;5014960;28;20448;-88
2021/10/23 02:31:43;;;;;;;2.33;1.87;;;;;;;;;;5015323;28;20456;-90
2021/10/23 02:34:10;;;;;;;4.13;1.83;;;;;;;;;;5015090;28;20839;-88
2021/10/23 02:36:37;;;;;;;6.17;2.20;;;;;;;;;;5014969;28;20445;-89
2021/10/23 02:39:05;;;;;;;7.23;2.10;;;;;;;;;;5013711;28;20502;-88
2021/10/23 02:41:32;;;;;;;6.37;1.93;;;;;;;;;;5015178;28;20876;-89
2021/10/23 02:43:59;;;;;;;3.10;1.87;;;;;;;;;;5014905;28;20448;-90
2021/10/23 02:46:28;;;;;;;3.73;1.83;;;6.30;99.90;;;;;;5014900;28;21038;-88
2021/10/23 02:48:55;;;;;;;5.03;1.93;;;;;;;;;;5014408;28;20456;-90
2021/10/23 02:51:22;;;;;;;2.50;1.63;;;;;;;;;;5017768;28;20451;-86
2021/10/23 02:53:49;;;;;;;6.20;1.60;;;;;;;;;;5020317;28;20448;-89
2021/10/23 02:56:17;;;;;;;3.33;1.93;;;;;;;;;;5015435;28;20448;-89
2021/10/23 02:58:44;;;;;;;3.57;1.60;;;;;;;;;;5014694;28;20455;-90
2021/10/23 03:01:11;;;;;;;3.77;1.50;;;;;;;;;;5011785;28;20561;-89
2021/10/23 03:03:39;;;;;;;4.93;2.10;;;6.50;99.90;;;;;;5014211;28;20983;-89
2021/10/23 03:06:07;;;;;;;3.10;1.80;;;;;;;;;;5014413;28;20488;-90
2021/10/23 03:08:34;;;;;;;6.27;2.07;;;;;;;;;;5014503;28;20452;-90
2021/10/23 03:11:01;;;;;;;4.40;2.20;;;;;;;;;;5013563;28;20453;-89
2021/10/23 03:13:28;;;;;;;8.60;2.47;;;;;;;;;;5014566;28;20452;-91
2021/10/23 03:15:56;;;;;;;3.17;1.97;;;;;;;;;;5014472;28;20531;-91
2021/10/23 03:18:23;;;;;;;8.90;1.80;;;;;;;;;;5014186;28;20623;-88
2021/10/23 03:20:53;;;;;;;2.20;1.57;;;6.70;99.90;;;;;;5014404;28;20469;-89
2021/10/23 03:23:21;;;;;;;3.33;2.10;;;;;;;;;;5014267;28;20452;-90
2021/10/23 03:25:48;;;;;;;4.67;1.80;;;;;;;;;;5012954;28;20492;-89
2021/10/23 03:28:15;;;;;;;5.63;2.17;;;;;;;;;;5014017;28;20464;-89
2021/10/23 03:30:42;;;;;;;4.47;2.17;;;;;;;;;;5013962;28;20982;-87
2021/10/23 03:33:10;;;;;;;3.03;1.60;;;;;;;;;;5013993;28;20935;-90
2021/10/23 03:35:37;;;;;;;4.50;2.17;;;;;;;;;;5014141;28;20452;-90
2021/10/23 03:38:06;;;;;;;2.43;1.70;;;6.60;99.90;;;;;;5013869;28;20507;-88
2021/10/23 03:40:33;;;;;;;3.73;1.77;;;;;;;;;;5012808;28;20449;-87
2021/10/23 03:43:00;;;;;;;3.27;1.90;;;;;;;;;;5013836;28;20479;-88
2021/10/23 03:45:28;;;;;;;2.00;1.47;;;;;;;;;;5013413;28;20516;-88
2021/10/23 03:47:55;;;;;;;7.03;2.57;;;;;;;;;;5014033;28;20749;-88
2021/10/23 03:50:22;;;;;;;3.80;1.90;;;;;;;;;;5013706;28;20464;-90
2021/10/23 03:52:49;;;;;;;5.20;1.60;;;;;;;;;;5013747;28;20460;-88
2021/10/23 03:55:18;;;;;;;4.83;1.70;;;6.50;99.90;;;;;;5012858;28;20448;-92
2021/10/23 03:57:45;;;;;;;9.40;3.00;;;;;;;;;;5013577;28;20449;-91
2021/10/23 04:00:13;;;;;;;2.67;1.67;;;6.70;99.90;;;;;;5013783;28;20460;-87
2021/10/23 04:02:40;;;;;;;2.57;1.67;;;;;;;;;;5015566;28;20484;-89
2021/10/23 04:05:08;;;;;;;4.70;2.50;;;6.50;99.90;;;;;;5013713;28;20960;-88
2021/10/23 04:07:35;;;;;;;5.73;2.33;;;;;;;;;;5013451;28;20499;-88
2021/10/23 04:10:03;;;;;;;2.60;1.80;;;;;;;;;;5012813;28;20452;-89
2021/10/23 04:12:32;;;;;;;4.93;2.43;;;;;;;;;;5015455;28;20459;-88
2021/10/23 04:15:00;;;;;;;3.73;2.00;;;;;;;;;;5013798;28;20456;-88
2021/10/23 04:17:27;;;;;;;2.73;1.50;;;;;;;;;;5013451;28;20445;-92
2021/10/23 04:19:54;;;;;;;4.70;2.00;;;;;;;;;;5024171;28;20448;-86
2021/10/23 04:22:22;;;;;;;5.03;2.10;;;;;;;;;;5020116;28;20478;-91
2021/10/23 04:24:51;;;;;;;7.43;2.53;;;;;;;;;;5012438;28;21007;-90
2021/10/23 04:27:18;;;;;;;6.70;2.10;;;;;;;;;;5013392;28;20496;-88
2021/10/23 04:29:46;;;;;;;6.37;2.23;;;6.40;99.90;;;;;;5012777;28;20506;-88
2021/10/23 04:32:14;;;;;;;2.63;1.40;;;;;;;;;;5013085;28;20451;-90
2021/10/23 04:34:41;;;;;;;5.03;2.37;;;;;;;;;;5013069;28;20470;-87
2021/10/23 04:37:08;;;;;;;3.20;2.13;;;;;;;;;;5013081;28;20921;-89
2021/10/23 04:39:35;;;;;;;3.53;2.10;;;;;;;;;;5012097;28;20456;-89
2021/10/23 04:42:02;;;;;;;3.77;2.00;;;;;;;;;;5012613;28;20529;-89
2021/10/23 04:44:29;;;;;;;5.07;2.30;;;;;;;;;;5013172;28;20963;-89
2021/10/23 04:46:58;;;;;;;2.30;1.60;;;6.40;99.90;;;;;;5014506;28;20511;-89
2021/10/23 04:49:25;;;;;;;7.90;2.27;;;;;;;;;;4994598;28;20448;-88
2021/10/23 04:51:52;;;;;;;10.23;2.70;;;;;;;;;;5012763;28;20544;-90
2021/10/23 04:54:19;;;;;;;5.10;2.20;;;;;;;;;;5014001;28;20800;-89
2021/10/23 04:56:46;;;;;;;3.90;2.13;;;;;;;;;;5013335;28;20464;-88
2021/10/23 04:59:13;;;;;;;2.80;1.90;;;;;;;;;;5013005;28;20457;-90
2021/10/23 05:01:40;;;;;;;2.40;1.97;;;;;;;;;;5013042;28;20459;-89
2021/10/23 05:04:09;;;;;;;5.17;2.50;;;;;;;;;;5013006;28;20448;-90
2021/10/23 05:06:36;;;;;;;4.00;1.97;;;;;;;;;;5012968;28;20487;-90
2021/10/23 05:09:03;;;;;;;3.67;1.83;;;;;;;;;;5012244;28;20464;-88
2021/10/23 05:11:30;;;;;;;4.60;2.30;;;;;;;;;;5012822;28;20536;-90
2021/10/23 05:13:57;;;;;;;6.10;2.23;;;;;;;;;;5012715;28;20448;-90
2021/10/23 05:16:24;;;;;;;3.10;2.30;;;;;;;;;;5012611;28;20471;-92
2021/10/23 05:18:51;;;;;;;2.20;1.90;;;;;;;;;;5012686;28;20463;-91
2021/10/23 05:21:21;;;;;;;6.80;2.13;;;6.30;99.90;;;;;;5012649;28;20508;-90
2021/10/23 05:23:50;;;;;;;5.10;1.70;;;6.30;99.90;;;;;;5011942;28;20451;-91
2021/10/23 05:26:17;;;;;;;4.30;2.20;;;;;;;;;;4994339;28;20487;-89
2021/10/23 05:28:44;;;;;;;3.50;2.53;;;;;;;;;;5012486;28;20441;-91
2021/10/23 05:31:12;;;;;;;6.27;2.30;;;;;;;;;;5013269;28;20448;-90
2021/10/23 05:33:39;;;;;;;6.53;2.13;;;;;;;;;;5020401;28;20448;-89
2021/10/23 05:36:06;;;;;;;6.80;2.73;;;;;;;;;;5015368;28;20448;-88
2021/10/23 05:38:34;;;;;;;4.23;2.07;;;3.70;99.90;;;;;;5012694;28;20460;-88
2021/10/23 05:41:01;;;;;;;5.23;2.40;;;;;;;;;;5011083;28;20464;-88
2021/10/23 05:43:29;;;;;;;6.93;2.73;;;;;;;;;;5012129;28;20788;-90
2021/10/23 05:45:56;;;;;;;3.50;2.30;;;;;;;;;;5012284;28;20456;-89
2021/10/23 05:48:23;;;;;;;3.57;2.43;;;;;;;;;;5015214;28;20448;-87
2021/10/23 05:50:50;;;;;;;6.13;2.27;;;;;;;;;;5017197;28;20468;-89
2021/10/23 05:53:18;;;;;;;3.63;1.90;;;6.40;99.90;;;;;;5013440;28;20807;-88
2021/10/23 05:55:46;;;;;;;3.27;2.30;;;6.40;99.90;;;;;;5011138;28;20452;-89
2021/10/23 05:58:13;;;;;;;13.87;6.30;;;;;;;;;;4981478;28;20435;-89
2021/10/23 06:00:49;;;;;;;5.53;3.17;;;;;;;;;;5015541;28;20520;-89
2021/10/23 06:03:20;;;;;;;3.90;2.57;;;;;;;;;;5015570;28;20483;-87
2021/10/23 06:05:47;;;;;;;10.53;4.70;;;;;;;;;;5015768;28;20607;-89
2021/10/23 06:08:14;;;;;;;26.60;19.17;;;;;;;;;;5015404;28;20499;-88
2021/10/23 06:10:42;;;;;;;12.60;5.77;;;;;;;;;;5014722;28;20451;-89
2021/10/23 06:13:11;;;;;;;8.50;3.93;;;6.40;99.90;;;;;;5016285;28;20453;-88
2021/10/23 06:15:38;;;;;;;5.23;2.60;;;;;;;;;;5015875;28;20448;-89
2021/10/23 06:18:05;;;;;;;7.60;2.80;;;;;;;;;;5017083;28;20452;-89
2021/10/23 06:20:32;;;;;;;4.43;2.30;;;;;;;;;;5015695;28;20995;-91
2021/10/23 06:22:59;;;;;;;5.83;2.40;;;;;;;;;;5016102;28;20455;-91
2021/10/23 06:25:27;;;;;;;4.53;2.07;;;;;;;;;;5016718;28;20437;-88
2021/10/23 06:27:56;;;;;;;5.90;3.23;;;;;;;;;;5017374;28;20492;-89
2021/10/23 06:30:25;;;;;;;5.80;2.47;;;6.60;99.90;;;;;;5016480;28;20484;-89
2021/10/23 06:32:53;;;;;;;5.47;2.33;;;6.70;99.90;;;;;;5015767;28;20456;-89
2021/10/23 06:35:21;;;;;;;5.90;3.17;;;;;;;;;;5016652;28;20437;-90
2021/10/23 06:37:54;;;;;;;6.37;2.20;;;6.80;99.90;;;;;;5018262;28;20452;-92
2021/10/23 06:40:23;;;;;;;8.60;2.27;;;;;;;;;;5016506;28;20458;-91
2021/10/23 06:42:51;;;;;;;3.23;2.30;;;;;;;;;;5019227;28;20456;-91
2021/10/23 06:45:18;;;;;;;4.90;1.73;;;;;;;;;;5017029;28;20476;-91
2021/10/23 06:47:46;;;;;;;7.07;2.90;;;6.80;99.90;;;;;;5015773;28;20492;-92
2021/10/23 06:50:15;;;;;;;3.70;2.63;;;6.70;99.90;;;;;;5015474;28;20456;-90
2021/10/23 06:52:42;;;;;;;7.10;2.67;;;;;;;;;;5012897;28;20452;-90
2021/10/23 06:55:09;;;;;;;3.90;2.40;;;7.10;99.90;;;;;;5014977;28;20481;-89
2021/10/23 06:57:36;;;;;;;5.67;2.53;;;;;;;;;;5017809;28;20460;-90
2021/10/23 07:00:06;;;;;;;4.60;2.13;;;6.70;99.90;;;;;;5017912;28;20471;-91
2021/10/23 07:02:38;;;;;;;10.03;2.20;;;6.70;99.90;;;;;;5016284;28;20488;-91
2021/10/23 07:05:10;;;;;;;6.80;2.47;;;6.80;99.90;;;;;;5016733;28;20449;-91
2021/10/23 07:07:37;;;;;;;6.47;2.50;;;;;;;;;;5015317;28;20542;-89
2021/10/23 07:10:05;;;;;;;3.17;2.00;;;;;;;;;;5014501;28;20455;-90
2021/10/23 07:12:32;;;;;;;7.13;2.20;;;;;;;;;;5015326;28;20456;-90
2021/10/23 07:14:59;;;;;;;4.23;2.80;;;;;;;;;;5017344;28;20452;-88
2021/10/23 07:17:26;;;;;;;6.93;2.20;;;;;;;;;;5023008;28;20441;-88
2021/10/23 07:19:53;;;;;;;4.10;2.40;;;;;;;;;;5020814;28;20452;-89
2021/10/23 07:22:22;;;;;;;8.97;2.50;;;7.30;99.90;;;;;;5015513;28;20531;-89
2021/10/23 07:24:49;;;;;;;6.13;2.33;;;;;;;;;;5013998;28;20461;-92
2021/10/23 07:27:17;;;;;;;1.80;1.40;;;;;;;;;;5014622;28;20543;-90
2021/10/23 07:29:44;;;;;;;7.50;2.20;;;;;;;;;;5015750;28;21077;-89
2021/10/23 07:32:11;;;;;;;7.17;2.60;;;;;;;;;;5014885;28;20471;-89
2021/10/23 07:34:38;;;;;;;3.70;2.03;;;;;;;;;;5014681;28;20464;-89
2021/10/23 07:37:05;;;;;;;8.80;2.30;;;;;;;;;;5014365;28;21105;-90
2021/10/23 07:39:34;;;;;;;4.07;2.97;;;7.70;99.90;;;;;;5019541;28;20446;-88
2021/10/23 07:42:01;;;;;;;5.10;2.20;;;;;;;;;;5016619;28;20519;-90
2021/10/23 07:44:28;;;;;;;4.17;2.20;;;;;;;;;;5014512;28;20558;-91
2021/10/23 07:46:56;;;;;;;3.53;1.63;;;;;;;;;;5016314;28;20487;-91
2021/10/23 07:49:23;;;;;;;5.37;2.30;;;;;;;;;;5014440;28;20456;-90
2021/10/23 07:51:50;;;;;;;2.80;1.50;;;;;;;;;;5014054;28;20787;-90
2021/10/23 07:54:17;;;;;;;2.03;1.60;;;;;;;;;;5013403;28;20475;-90
2021/10/23 07:56:45;;;;;;;4.50;3.17;;;9.60;99.90;;;;;;5014677;28;20444;-91
2021/10/23 07:59:14;;;;;;;6.00;2.30;;;;;;;;;;5014322;28;20791;-91
2021/10/23 08:01:41;;;;;;;4.70;2.00;;;;;;;;;;5014320;28;20523;-91
2021/10/23 08:04:09;;;;;;;6.67;2.50;;;;;;;;;;5014333;28;20440;-88
2021/10/23 08:06:36;;;;;;;6.60;1.93;;;;;;;;;;5013928;28;20455;-91
2021/10/23 08:09:11;;;;;;;5.33;1.93;;;;;;;;;;5013260;28;20549;-88
2021/10/23 08:11:38;;;;;;;6.10;2.43;;;;;;;;;;5013936;28;20458;-89
2021/10/23 08:14:06;;;;;;;6.10;2.37;;;10.10;99.90;;;;;;5013657;28;20448;-88
2021/10/23 08:16:33;;;;;;;3.13;2.10;;;;;;;;;;5012789;28;20940;-89
2021/10/23 08:19:01;;;;;;;3.33;1.83;;;;;;;;;;5013711;28;20468;-90
2021/10/23 08:21:28;;;;;;;7.17;2.33;;;;;;;;;;5011388;28;20460;-89
2021/10/23 08:23:55;;;;;;;4.40;2.27;;;;;;;;;;5012684;28;20444;-88
2021/10/23 08:26:22;;;;;;;5.33;2.50;;;;;;;;;;5013278;28;20452;-89
2021/10/23 08:28:49;;;;;;;7.67;2.27;;;;;;;;;;5013143;28;20829;-89
2021/10/23 08:31:17;;;;;;;2.47;1.87;;;12.60;99.90;;;;;;5013623;28;20448;-89
2021/10/23 08:33:44;;;;;;;7.03;3.10;;;;;;;;;;5013329;28;20445;-90
2021/10/23 08:36:12;;;;;;;3.23;2.20;;;;;;;;;;5013402;28;20612;-88
2021/10/23 08:38:40;;;;;;;4.40;1.80;;;;;;;;;;5019025;28;20459;-89
2021/10/23 08:41:07;;;;;;;4.43;2.10;;;12.20;99.90;;;;;;5020678;28;20451;-89
2021/10/23 08:43:35;;;;;;;5.37;2.23;;;;;;;;;;5013620;28;20935;-90
2021/10/23 08:46:02;;;;;;;4.53;1.83;;;13.00;99.90;;;;;;5018636;28;20468;-88
2021/10/23 08:48:31;;;;;;;2.50;1.60;;;13.70;99.90;;;;;;5012675;28;20498;-90
2021/10/23 08:51:00;;;;;;;3.03;2.10;;;14.40;99.90;;;;;;5012813;28;20456;-90
2021/10/23 08:53:29;;;;;;;4.03;1.90;;;13.90;99.90;;;;;;5012753;28;20444;-89
2021/10/23 08:55:57;;;;;;;4.00;2.03;;;14.50;99.90;;;;;;5012330;28;20456;-92
2021/10/23 08:58:25;;;;;;;9.97;2.53;;;;;;;;;;5017583;28;20476;-90
2021/10/23 09:00:53;;;;;;;3.10;2.00;;;;;;;;;;5034425;28;20459;-89
2021/10/23 09:03:22;;;;;;;2.57;1.80;;;;;;;;;;5036661;28;20518;-89
2021/10/23 09:05:50;;;;;;;2.33;1.90;;;15.80;99.90;;;;;;5033608;28;20544;-90
2021/10/23 09:08:18;;;;;;;2.83;2.10;;;16.50;99.90;;;;;;5033439;28;20503;-88
2021/10/23 09:10:49;;;;;;;4.23;2.10;;;16.30;99.90;;;;;;5031511;28;20439;-89
2021/10/23 09:13:27;;;;;;;5.23;2.37;;;16.30;99.90;;;;;;5014115;28;20468;-91
2021/10/23 09:15:54;;;;;;;2.73;1.80;;;;;;;;;;5012676;28;20452;-89
2021/10/23 09:18:41;;;;;;;2.00;1.80;;;17.20;99.90;;;;;;5012797;28;20459;-90
2021/10/23 09:21:17;;;;;;;5.53;2.10;;;;;;;;;;5012301;28;20502;-91
2021/10/23 09:23:46;;;;;;;5.20;1.70;;;17.40;97.80;;;;;;5011907;28;20452;-89
2021/10/23 09:26:34;;;;;;;8.67;3.97;;;16.30;99.90;;;;;;5012701;28;20475;-89
2021/10/23 09:29:13;;;;;;;5.33;2.10;;;;;;;;;;5017480;28;20496;-93
2021/10/23 09:31:44;;;;;;;5.17;1.80;;;17.70;97.50;;;;;;5018864;28;20948;-90
2021/10/23 09:34:11;;;;;;;5.47;2.33;;;;;;;;;;5019338;28;20480;-91
2021/10/23 09:36:44;;;;;;;5.10;2.17;;;;;;;;;;5023272;28;20471;-90
2021/10/23 09:39:11;;;;;;;3.80;1.83;;;;;;;;;;5016835;28;20456;-90
2021/10/23 09:41:38;;;;;;;3.90;1.90;;;;;;;;;;5016370;28;20452;-88
2021/10/23 09:44:15;;;;;;;3.93;2.03;;;15.50;96.60;;;;;;5016141;28;20531;-88
2021/10/23 09:46:53;;;;;;;3.27;1.70;;;16.40;95.30;;;;;;5016118;28;20448;-89
2021/10/23 09:49:20;;;;;;;2.00;1.70;;;;;;;;;;5015885;28;20498;-90
2021/10/23 09:52:01;;;;;;;3.23;1.53;;;17.20;95.90;;;;;;5015808;28;20444;-88
2021/10/23 09:54:28;;;;;;;5.10;1.93;;;;;;;;;;5014916;28;20543;-89
2021/10/23 09:56:55;;;;;;;4.13;1.80;;;;;;;;;;5016349;28;20786;-89
2021/10/23 09:59:27;;;;;;;3.80;2.03;;;17.20;97.30;;;;;;5015893;28;20452;-88
2021/10/23 10:01:57;;;;;;;3.30;2.07;;;16.20;96.70;;;;;;5015562;28;20990;-90
2021/10/23 10:04:25;;;;;;;5.43;2.30;;;;;;;;;;5015979;28;20448;-90
2021/10/23 10:06:54;;;;;;;5.87;2.00;;;;;;;;;;5016071;28;20471;-90
2021/10/23 10:09:22;;;;;;;3.00;1.90;;;;;;;;;;5015789;28;20500;-90
2021/10/23 10:11:49;;;;;;;3.93;1.53;;;;;;;;;;5018036;28;20488;-92
2021/10/23 10:14:17;;;;;;;4.53;1.93;;;13.40;99.90;;;;;;5023521;28;20533;-88
2021/10/23 10:16:46;;;;;;;4.70;2.00;;;13.20;99.90;;;;;;5023012;28;20444;-89
2021/10/23 10:19:13;;;;;;;3.10;1.73;;;;;;;;;;5017404;28;20455;-90
2021/10/23 10:21:41;;;;;;;5.70;2.03;;;;;;;;;;5017437;28;20456;-91
2021/10/23 10:24:18;;;;;;;4.97;1.90;;;12.50;99.90;;;;;;5016869;28;20456;-92
2021/10/23 10:27:02;;;;;;;5.80;2.27;;;12.20;99.90;;;;;;5020774;28;20440;-89
2021/10/23 10:29:38;;;;;;;3.43;2.30;;;;;;;;;;5019770;28;20973;-92
2021/10/23 10:32:15;;;;;;;4.73;2.37;;;11.90;99.90;;;;;;5019669;28;20448;-90
2021/10/23 10:38:12;;;;;;;6.00;3.07;;;11.60;99.90;;;;;;4975242;28;20449;-88
2021/10/23 10:43:26;;;;;;;4.23;2.43;;;;;;;;;;5001553;28;20439;-88
2021/10/23 10:45:56;;;;;;;3.07;2.43;;;11.60;99.90;;;;;;5015230;28;20478;-91
2021/10/23 10:48:23;;;;;;;7.27;2.20;;;;;;;;;;5022818;28;20539;-91
2021/10/23 10:50:53;;;;;;;5.80;3.10;;;11.70;99.90;;;;;;5031923;28;20444;-88
2021/10/23 10:53:21;;;;;;;6.93;2.87;;;;;;;;;;5042016;28;20444;-88
2021/10/23 10:55:52;;;;;;;2.70;1.93;;;12.20;99.90;;;;;;5040600;28;20435;-89
2021/10/23 10:58:20;;;;;;;12.33;2.40;;;;;;;;;;5042005;28;20447;-91
2021/10/23 11:01:16;;;;;;;3.33;2.00;;;14.20;99.90;;;;;;5038244;28;20458;-86
2021/10/23 11:03:46;;;;;;;5.80;2.80;;;15.70;97.80;;;;;;5035417;28;20479;-87
2021/10/23 11:07:01;;;;;;;2.40;2.03;;;15.40;96.90;;;;;;5034946;28;20452;-90
2021/10/23 11:09:44;;;;;;;6.93;1.90;;;15.00;97.90;;;;;;5034321;28;20495;-89
2021/10/23 11:12:27;;;;;;;6.17;2.20;;;14.10;99.90;;;;;;5035424;28;21181;-88
2021/10/23 11:14:54;;;;;;;4.83;2.30;;;;;;;;;;5035378;28;20435;-91
2021/10/23 11:17:24;;;;;;;2.60;1.90;;;13.60;99.90;;;;;;5035430;28;20455;-90
2021/10/23 11:19:53;;;;;;;5.40;2.40;;;13.20;99.90;;;;;;5036388;28;20534;-90
2021/10/23 11:22:22;;;;;;;5.10;2.10;;;13.10;99.90;;;;;;5035387;28;20487;-92
2021/10/23 11:24:51;;;;;;;2.73;2.13;;;12.90;99.90;;;;;;5034677;28;20478;-95
2021/10/23 11:27:31;;;;;;;3.80;1.80;;;13.00;99.90;;;;;;5035208;28;20444;-93
2021/10/23 11:30:18;;;;;;;4.10;2.80;;;13.00;99.90;;;;;;5035653;28;20509;-92
2021/10/23 11:32:57;;;;;;;4.53;2.70;;;12.90;99.90;;;;;;5037139;28;20447;-90
2021/10/23 11:35:32;;;;;;;3.57;2.10;;;12.80;99.90;;;;;;5035441;28;20459;-94
2021/10/23 11:37:59;;;;;;;7.57;2.27;;;;;;;;;;5037349;28;20534;-89
2021/10/23 11:40:26;;;;;;;4.47;2.60;;;;;;;;;;5039530;28;20483;-91
2021/10/23 11:42:54;;;;;;;2.70;2.37;;;13.00;99.90;;;;;;5049124;28;20562;-88
2021/10/23 11:45:23;;;;;;;4.97;2.50;;;13.10;99.90;;;;;;5046110;28;20462;-90
2021/10/23 11:47:52;;;;;;;5.60;2.43;;;13.00;99.90;;;;;;5037093;28;20455;-89
2021/10/23 11:50:24;;;;;;;4.77;2.80;;;12.90;99.90;;;;;;5033327;28;20770;-90
2021/10/23 11:52:52;;;;;;;8.10;2.40;;;12.80;99.90;;;;;;5034080;28;20459;-89
2021/10/23 11:55:27;;;;;;;4.83;2.07;;;13.00;99.90;;;;;;5036657;28;20467;-90
2021/10/23 11:57:59;;;;;;;3.63;2.03;;;12.90;99.90;;;;;;5036750;28;20443;-92
2021/10/23 12:00:28;;;;;;;3.90;2.00;;;12.70;99.90;;;;;;5041050;28;20444;-91
2021/10/23 12:03:00;;;;;;;3.73;2.53;;;12.80;99.90;;;;;;5042850;28;20483;-91
2021/10/23 12:05:35;;;;;;;5.73;2.17;;;12.80;99.90;;;;;;5039220;28;20455;-91
2021/10/23 12:08:30;;;;;;;5.00;2.63;;;;;;;;;;5035238;28;20447;-90
2021/10/23 12:11:05;;;;;;;5.13;2.60;;;;;;;;;;5033340;28;20436;-91
2021/10/23 12:13:53;;;;;;;3.50;1.90;;;15.00;99.90;;;;;;5019764;28;20907;-90
2021/10/23 12:16:21;;;;;;;3.23;2.40;;;;;;;;;;5018814;28;20458;-92
2021/10/23 12:19:00;;;;;;;3.27;2.30;;;15.80;99.10;;;;;;5023707;28;20448;-90
2021/10/23 12:21:44;;;;;;;4.50;2.57;;;15.60;99.20;;;;;;5024122;28;20487;-89
2021/10/23 12:24:26;;;;;;;3.13;1.87;;;;;;;;;;5024121;28;20533;-89
2021/10/23 12:27:12;;;;;;;1.77;1.57;;;;;;;;;;5018840;28;20820;-91
2021/10/23 12:29:48;;;;;;;3.23;1.77;;;;;;;;;;5023534;28;20931;-90
2021/10/23 12:32:21;;;;;;;5.03;1.70;;;;;;;;;;5024411;28;20918;-89
2021/10/23 12:35:20;;;;;;;3.40;1.67;;;16.60;93.00;;;;;;5023751;28;20492;-91
2021/10/23 12:37:54;;;;;;;3.00;1.47;;;17.10;91.60;;;;;;4986422;28;20442;-92
2021/10/23 12:40:27;;;;;;;6.67;2.07;;;17.00;91.50;;;;;;5013290;28;20468;-90
2021/10/23 12:42:58;;;;;;;6.37;2.47;;;16.90;93.40;;;;;;5033523;28;20502;-89
2021/10/23 12:45:28;;;;;;;4.57;2.47;;;15.50;93.50;;;;;;5033280;28;20802;-90
2021/10/23 12:47:57;;;;;;;4.97;3.13;;;15.30;94.00;;;;;;5033536;28;20790;-89
2021/10/23 12:50:24;;;;;;;4.57;2.00;;;;;;;;;;5033560;28;20439;-90
2021/10/23 12:52:51;;;;;;;2.27;1.73;;;16.50;94.70;;;;;;5033496;28;20435;-93
2021/10/23 12:55:19;;;;;;;3.83;1.97;;;;;;;;;;5033078;28;20431;-92
2021/10/23 12:57:46;;;;;;;3.67;1.80;;;;;;;;;;5033556;28;20443;-91
2021/10/23 13:00:14;;;;;;;3.13;1.97;;;;;;;;;;5015643;28;20483;-89
2021/10/23 13:02:42;;;;;;;4.77;2.47;;;15.70;95.00;;;;;;5015398;28;20515;-89
2021/10/23 13:05:23;;;;;;;3.70;1.97;;;15.60;94.80;;;;;;5020507;28;20448;-91
2021/10/23 13:07:50;;;;;;;4.73;2.47;;;;;;;;;;5019718;28;20456;-89
2021/10/23 13:10:24;;;;;;;4.57;2.30;;;;;;;;;;5024707;28;20494;-90
2021/10/23 13:12:52;;;;;;;3.70;1.83;;;;;;;;;;5023360;28;20452;-89
2021/10/23 13:15:19;;;;;;;3.07;1.83;;;;;;;;;;5026476;28;20448;-90
2021/10/23 13:17:47;;;;;;;3.50;1.90;;;;;;;;;;5018435;28;20444;-92
2021/10/23 13:20:15;;;;;;;2.87;1.70;;;;;;;;;;5018379;28;20463;-91
2021/10/23 13:22:42;;;;;;;2.80;1.97;;;;;;;;;;5018500;28;20463;-90
2021/10/23 13:25:10;;;;;;;2.27;1.70;;;;;;;;;;5017096;28;20448;-93
2021/10/23 13:27:38;;;;;;;2.37;1.50;;;;;;;;;;5020624;28;20443;-92
2021/10/23 13:30:05;;;;;;;8.10;2.20;;;;;;;;;;5017437;28;20518;-92
2021/10/23 13:32:32;;;;;;;3.67;2.20;;;;;;;;;;5017645;28;20943;-92
2021/10/23 13:35:00;;;;;;;3.67;1.93;;;;;;;;;;5020034;28;20479;-92
2021/10/23 13:37:28;;;;;;;3.80;1.70;;;;;;;;;;5018004;28;20452;-92
2021/10/23 13:39:56;;;;;;;3.27;1.80;;;;;;;;;;5019312;28;20483;-92
2021/10/23 13:42:23;;;;;;;4.53;1.60;;;;;;;;;;5017458;28;20429;-92
2021/10/23 13:44:51;;;;;;;4.53;1.67;;;;;;;;;;5019484;28;20472;-91
2021/10/23 13:47:19;;;;;;;3.33;1.90;;;;;;;;;;5017765;28;20460;-92
2021/10/23 13:49:46;;;;;;;4.23;2.00;;;;;;;;;;5018767;28;20545;-92
2021/10/23 13:52:15;;;;;;;2.43;2.00;;;13.30;96.60;;;;;;5017589;28;20445;-92
2021/10/23 13:54:42;;;;;;;4.10;2.30;;;;;;;;;;5016400;28;21107;-92
2021/10/23 13:57:09;;;;;;;2.33;1.63;;;;;;;;;;5017996;28;20460;-92
2021/10/23 13:59:36;;;;;;;2.73;1.70;;;;;;;;;;5024177;28;20436;-91
2021/10/23 14:02:05;;;;;;;4.00;1.97;;;12.90;97.20;;;;;;5026959;28;20479;-91
2021/10/23 14:04:32;;;;;;;3.80;2.03;;;;;;;;;;5020849;28;20452;-89
2021/10/23 14:06:59;;;;;;;3.80;2.00;;;;;;;;;;5016187;28;20432;-91
2021/10/23 14:09:29;;;;;;;2.83;2.03;;;13.50;96.40;;;;;;5015972;28;20858;-91
2021/10/23 14:11:57;;;;;;;4.33;1.40;;;;;;;;;;5015871;28;20547;-91
2021/10/23 14:14:24;;;;;;;2.30;1.70;;;;;;;;;;5014664;28;20831;-91
2021/10/23 14:16:51;;;;;;;3.63;1.63;;;;;;;;;;5016831;28;20456;-93
2021/10/23 14:19:18;;;;;;;4.73;2.50;;;;;;;;;;5016823;28;20928;-92
2021/10/23 14:21:45;;;;;;;2.20;2.00;;;;;;;;;;5016496;28;20452;-92